createdAt,value
2023-05-15T00:01:38.760Z,5.72
2023-05-15T00:04:07.296Z,5.75
2023-05-15T00:06:35.100Z,5.35
2023-05-15T00:09:04.691Z,5.28
2023-05-15T00:11:32.570Z,5.38
2023-05-15T00:14:00.625Z,5.68
2023-05-15T00:16:28.822Z,5.22
2023-05-15T00:18:57.003Z,5.35
2023-05-15T00:21:25.183Z,5.00
2023-05-15T00:23:54.397Z,5.13
2023-05-15T00:26:23.981Z,5.30
2023-05-15T00:28:52.024Z,5.38
2023-05-15T00:31:20.202Z,5.55
2023-05-15T00:33:48.103Z,5.20
2023-05-15T00:36:17.813Z,5.30
2023-05-15T00:38:53.409Z,4.78
2023-05-15T00:41:23.338Z,5.30
2023-05-15T00:43:52.746Z,4.72
2023-05-15T00:46:21.513Z,4.75
2023-05-15T00:48:51.177Z,4.55
2023-05-15T00:51:19.077Z,4.57
2023-05-15T00:53:48.179Z,5.03
2023-05-15T00:56:17.304Z,5.13
2023-05-15T00:58:47.931Z,5.22
2023-05-15T01:01:17.299Z,4.72
2023-05-15T01:03:45.409Z,4.38
2023-05-15T01:06:14.086Z,4.38
2023-05-15T01:08:48.811Z,4.50
2023-05-15T01:11:18.337Z,4.68
2023-05-15T01:13:47.232Z,4.32
2023-05-15T01:16:14.991Z,4.55
2023-05-15T01:18:43.499Z,4.78
2023-05-15T01:21:11.263Z,4.32
2023-05-15T01:23:52.928Z,4.30
2023-05-15T01:26:48.001Z,3.92
2023-05-15T01:29:25.484Z,4.68
2023-05-15T01:32:00.150Z,4.22
2023-05-15T01:34:49.386Z,4.00
2023-05-15T01:37:19.481Z,4.13
2023-05-15T01:39:50.805Z,4.38
2023-05-15T01:42:19.840Z,3.85
2023-05-15T01:44:54.029Z,4.30
2023-05-15T01:47:30.831Z,4.53
2023-05-15T01:50:00.473Z,3.95
2023-05-15T01:52:36.785Z,4.53
2023-05-15T01:55:07.630Z,4.03
2023-05-15T01:57:37.026Z,4.35
2023-05-15T02:00:07.763Z,3.88
2023-05-15T02:02:42.546Z,4.07
2023-05-15T02:05:13.566Z,3.72
2023-05-15T02:07:45.560Z,4.53
2023-05-15T02:10:14.383Z,4.00
2023-05-15T02:12:48.384Z,4.00
2023-05-15T02:15:18.542Z,4.00
2023-05-15T02:17:48.272Z,4.10
2023-05-15T02:20:16.668Z,4.63
2023-05-15T02:22:44.424Z,3.75
2023-05-15T02:25:12.364Z,4.22
2023-05-15T02:27:57.548Z,4.00
2023-05-15T02:30:55.806Z,4.00
2023-05-15T02:33:45.944Z,4.20
2023-05-15T02:36:20.855Z,4.50
2023-05-15T02:38:53.686Z,4.30
2023-05-15T02:41:22.974Z,4.30
2023-05-15T02:43:51.511Z,4.32
2023-05-15T02:46:20.392Z,3.95
2023-05-15T02:48:49.193Z,4.28
2023-05-15T02:51:17.528Z,4.13
2023-05-15T02:53:45.208Z,4.53
2023-05-15T02:56:13.234Z,4.22
2023-05-15T02:58:41.879Z,4.53
2023-05-15T03:01:10.359Z,4.00
2023-05-15T03:03:38.094Z,4.22
2023-05-15T03:06:06.620Z,4.95
2023-05-15T03:08:34.403Z,4.22
2023-05-15T03:11:02.404Z,4.68
2023-05-15T03:13:30.709Z,4.13
2023-05-15T03:15:58.772Z,4.45
2023-05-15T03:18:26.584Z,4.35
2023-05-15T03:20:54.971Z,4.40
2023-05-15T03:23:23.413Z,4.10
2023-05-15T03:25:52.154Z,4.20
2023-05-15T03:28:19.986Z,3.88
2023-05-15T03:30:47.869Z,4.47
2023-05-15T03:33:15.783Z,4.40
2023-05-15T03:35:44.966Z,4.72
2023-05-15T03:38:12.715Z,4.68
2023-05-15T03:40:41.293Z,4.05
2023-05-15T03:43:08.985Z,4.30
2023-05-15T03:45:36.995Z,4.95
2023-05-15T03:48:05.553Z,5.05
2023-05-15T03:50:34.014Z,4.43
2023-05-15T03:53:01.761Z,4.88
2023-05-15T03:55:29.562Z,4.28
2023-05-15T03:57:58.275Z,4.00
2023-05-15T04:00:26.879Z,4.28
2023-05-15T04:02:55.154Z,4.38
2023-05-15T04:05:23.359Z,4.63
2023-05-15T04:07:51.573Z,4.22
2023-05-15T04:10:20.221Z,4.57
2023-05-15T04:12:48.169Z,4.90
2023-05-15T04:15:23.938Z,4.47
2023-05-15T04:17:53.208Z,4.78
2023-05-15T04:20:23.146Z,4.63
2023-05-15T04:22:52.399Z,4.53
2023-05-15T04:25:25.022Z,4.43
2023-05-15T04:27:53.501Z,4.63
2023-05-15T04:30:21.326Z,4.55
2023-05-15T04:32:49.831Z,4.57
2023-05-15T04:35:18.456Z,5.43
2023-05-15T04:37:50.061Z,4.80
2023-05-15T04:40:22.696Z,5.03
2023-05-15T04:42:50.449Z,5.53
2023-05-15T04:45:18.687Z,4.57
2023-05-15T04:47:46.719Z,5.47
2023-05-15T04:50:14.647Z,5.13
2023-05-15T04:52:44.678Z,5.20
2023-05-15T04:55:12.654Z,4.90
2023-05-15T04:57:40.619Z,4.88
2023-05-15T05:00:12.435Z,4.97
2023-05-15T05:02:41.781Z,4.75
2023-05-15T05:05:10.540Z,5.07
2023-05-15T05:07:38.957Z,5.47
2023-05-15T05:10:08.273Z,4.65
2023-05-15T05:12:36.311Z,5.00
2023-05-15T05:15:05.491Z,5.30
2023-05-15T05:17:33.042Z,4.72
2023-05-15T05:20:01.839Z,5.07
2023-05-15T05:22:30.842Z,5.07
2023-05-15T05:24:58.672Z,5.10
2023-05-15T05:27:27.319Z,4.47
2023-05-15T05:29:55.718Z,5.22
2023-05-15T05:32:23.752Z,4.97
2023-05-15T05:34:52.260Z,5.25
2023-05-15T05:37:21.422Z,4.78
2023-05-15T05:39:50.873Z,4.43
2023-05-15T05:42:19.030Z,4.72
2023-05-15T05:44:47.787Z,4.70
2023-05-15T05:47:16.789Z,5.22
2023-05-15T05:49:48.889Z,5.05
2023-05-15T05:52:18.217Z,4.68
2023-05-15T05:54:48.313Z,4.85
2023-05-15T05:57:17.042Z,4.75
2023-05-15T05:59:47.256Z,4.43
2023-05-15T06:02:15.566Z,4.53
2023-05-15T06:04:45.090Z,5.07
2023-05-15T06:07:13.938Z,4.60
2023-05-15T06:09:42.763Z,5.25
2023-05-15T06:12:10.836Z,4.72
2023-05-15T06:14:39.337Z,5.05
2023-05-15T06:17:07.591Z,5.18
2023-05-15T06:19:35.534Z,4.97
2023-05-15T06:22:03.118Z,5.22
2023-05-15T06:24:31.240Z,5.00
2023-05-15T06:26:59.383Z,4.35
2023-05-15T06:29:28.061Z,4.53
2023-05-15T06:31:55.852Z,4.47
2023-05-15T06:34:24.437Z,4.28
2023-05-15T06:36:53.266Z,4.00
2023-05-15T06:39:21.777Z,4.28
2023-05-15T06:41:49.650Z,4.05
2023-05-15T06:44:20.246Z,4.32
2023-05-15T06:46:48.279Z,4.35
2023-05-15T06:49:16.723Z,4.93
2023-05-15T06:51:44.565Z,5.50
2023-05-15T06:54:13.107Z,4.55
2023-05-15T06:56:42.047Z,5.00
2023-05-15T06:59:10.499Z,5.38
2023-05-15T07:01:39.817Z,5.53
2023-05-15T07:04:08.893Z,5.93
2023-05-15T07:06:38.065Z,6.03
2023-05-15T07:09:07.264Z,6.38
2023-05-15T07:11:37.855Z,5.75
2023-05-15T07:14:07.396Z,6.70
2023-05-15T07:16:35.436Z,6.18
2023-05-15T07:19:04.551Z,6.78
2023-05-15T07:21:32.701Z,6.90
2023-05-15T07:24:01.166Z,10.55
2023-05-15T07:26:38.455Z,10.00
2023-05-15T07:31:42.201Z,7.03
2023-05-15T07:34:11.549Z,6.97
2023-05-15T07:36:39.283Z,6.88
2023-05-15T07:39:07.692Z,7.35
2023-05-15T07:41:35.768Z,7.10
2023-05-15T07:44:04.434Z,6.97
2023-05-15T07:46:33.196Z,7.60
2023-05-15T07:49:01.658Z,7.97
2023-05-15T07:51:29.523Z,7.47
2023-05-15T07:53:57.575Z,9.15
2023-05-15T07:56:25.933Z,7.80
2023-05-15T07:58:54.480Z,8.00
2023-05-15T08:01:22.408Z,8.35
2023-05-15T08:03:50.921Z,8.35
2023-05-15T08:06:19.286Z,8.63
2023-05-15T08:08:47.788Z,9.55
2023-05-15T08:11:16.430Z,9.32
2023-05-15T08:13:45.053Z,8.50
2023-05-15T08:16:13.087Z,8.55
2023-05-15T08:18:41.612Z,8.43
2023-05-15T08:21:09.788Z,8.00
2023-05-15T08:23:38.099Z,8.30
2023-05-15T08:26:05.955Z,8.77
2023-05-15T08:28:34.414Z,8.48
2023-05-15T08:31:02.905Z,8.85
2023-05-15T08:33:30.941Z,9.32
2023-05-15T08:35:59.133Z,9.00
2023-05-15T08:38:27.450Z,9.30
2023-05-15T08:40:58.849Z,8.48
2023-05-15T08:43:28.221Z,8.50
2023-05-15T08:45:56.485Z,9.30
2023-05-15T08:48:26.194Z,9.73
2023-05-15T08:50:54.669Z,8.57
2023-05-15T08:53:23.224Z,9.15
2023-05-15T08:55:51.072Z,9.30
2023-05-15T08:58:21.726Z,8.98
2023-05-15T09:00:50.079Z,9.07
2023-05-15T09:03:20.253Z,9.13
2023-05-15T09:05:48.693Z,8.68
2023-05-15T09:08:17.876Z,8.93
2023-05-15T09:10:46.086Z,9.93
2023-05-15T09:13:15.537Z,9.82
2023-05-15T09:15:43.964Z,10.65
2023-05-15T09:18:12.790Z,10.60
2023-05-15T09:20:41.237Z,10.32
2023-05-15T09:23:24.965Z,10.73
2023-05-15T09:28:34.811Z,11.13
2023-05-15T09:31:05.925Z,10.20
2023-05-15T09:33:37.385Z,10.45
2023-05-15T09:36:07.551Z,11.25
2023-05-15T09:38:42.686Z,11.57
2023-05-15T09:41:12.047Z,11.10
2023-05-15T09:43:41.727Z,11.10
2023-05-15T09:46:09.843Z,11.30
2023-05-15T09:48:38.937Z,11.93
2023-05-15T09:51:15.607Z,10.80
2023-05-15T09:53:48.946Z,11.50
2023-05-15T09:56:17.788Z,11.35
2023-05-15T09:58:55.912Z,11.85
2023-05-15T10:01:24.322Z,11.93
2023-05-15T10:04:07.709Z,11.32
2023-05-15T10:06:42.814Z,12.10
2023-05-15T10:09:13.174Z,12.57
2023-05-15T10:11:46.181Z,13.10
2023-05-15T10:14:14.809Z,13.40
2023-05-15T10:16:42.736Z,13.77
2023-05-15T10:19:12.323Z,13.73
2023-05-15T10:21:41.905Z,14.18
2023-05-15T10:24:11.699Z,13.23
2023-05-15T10:26:42.172Z,12.70
2023-05-15T10:29:14.920Z,13.70
2023-05-15T10:31:42.946Z,12.82
2023-05-15T10:34:11.425Z,12.70
2023-05-15T10:36:39.981Z,13.18
2023-05-15T10:39:08.717Z,13.20
2023-05-15T10:41:38.787Z,13.40
2023-05-15T10:44:07.946Z,12.38
2023-05-15T10:46:36.773Z,13.32
2023-05-15T10:49:05.818Z,14.18
2023-05-15T10:51:36.821Z,13.90
2023-05-15T10:54:05.987Z,14.30
2023-05-15T10:56:35.500Z,15.00
2023-05-15T10:59:11.227Z,16.30
2023-05-15T11:01:41.128Z,15.07
2023-05-15T11:04:15.329Z,16.23
2023-05-15T11:06:48.088Z,13.35
2023-05-15T11:14:23.695Z,13.10
2023-05-15T11:16:54.644Z,14.77
2023-05-15T11:19:29.674Z,13.98
2023-05-15T11:22:21.430Z,16.23
2023-05-15T11:25:03.667Z,15.23
2023-05-15T11:27:34.182Z,15.98
2023-05-15T11:30:05.730Z,15.88
2023-05-15T11:32:55.680Z,16.13
2023-05-15T11:35:42.477Z,16.55
2023-05-15T11:38:10.724Z,15.55
2023-05-15T11:40:59.477Z,17.83
2023-05-15T11:43:32.225Z,15.88
2023-05-15T11:46:04.848Z,15.50
2023-05-15T11:48:35.264Z,16.33
2023-05-15T11:51:05.176Z,16.08
2023-05-15T11:53:34.274Z,16.52
2023-05-15T11:56:03.274Z,14.73
2023-05-15T11:58:32.196Z,15.35
2023-05-15T12:01:00.572Z,15.13
2023-05-15T12:03:34.453Z,13.90
2023-05-15T12:06:03.949Z,15.88
2023-05-15T12:08:36.603Z,14.60
2023-05-15T12:13:35.058Z,14.30
2023-05-15T12:16:04.925Z,12.90
2023-05-15T12:18:34.324Z,12.85
2023-05-15T12:21:05.057Z,13.77
2023-05-15T12:23:32.948Z,14.50
2023-05-15T12:26:02.491Z,15.13
2023-05-15T12:28:35.177Z,14.98
2023-05-15T12:31:04.749Z,12.93
2023-05-15T12:33:32.624Z,14.38
2023-05-15T12:36:01.745Z,14.52
2023-05-15T12:38:31.105Z,12.57
2023-05-15T12:40:59.531Z,14.85
2023-05-15T12:43:27.893Z,14.75
2023-05-15T12:45:57.705Z,15.52
2023-05-15T12:48:32.667Z,15.43
2023-05-15T12:51:10.095Z,14.65
2023-05-15T12:53:40.153Z,15.95
2023-05-15T12:56:16.199Z,14.55
2023-05-15T12:58:44.062Z,14.63
2023-05-15T13:01:12.723Z,14.90
2023-05-15T13:03:43.259Z,14.65
2023-05-15T13:06:11.910Z,15.18
2023-05-15T13:08:42.311Z,15.60
2023-05-15T13:11:14.729Z,14.38
2023-05-15T13:13:44.584Z,16.58
2023-05-15T13:16:26.514Z,16.75
2023-05-15T13:18:54.634Z,14.70
2023-05-15T13:21:22.857Z,15.68
2023-05-15T13:23:52.167Z,18.08
2023-05-15T13:26:21.374Z,19.77
2023-05-15T13:28:49.575Z,19.95
2023-05-15T13:31:18.101Z,19.98
2023-05-15T13:33:46.789Z,20.95
2023-05-15T13:36:15.044Z,19.70
2023-05-15T13:38:42.906Z,22.80
2023-05-15T13:41:11.013Z,20.92
2023-05-15T13:43:39.343Z,20.63
2023-05-15T13:46:08.105Z,21.25
2023-05-15T13:48:36.032Z,18.35
2023-05-15T13:51:04.453Z,20.98
2023-05-15T13:53:32.379Z,18.90
2023-05-15T13:56:00.866Z,21.25
2023-05-15T13:58:28.706Z,21.00
2023-05-15T14:00:57.159Z,20.63
2023-05-15T14:03:25.078Z,20.75
2023-05-15T14:05:54.631Z,20.42
2023-05-15T14:08:22.486Z,20.10
2023-05-15T14:10:50.805Z,19.63
2023-05-15T14:13:19.249Z,19.80
2023-05-15T14:15:47.709Z,19.40
2023-05-15T14:18:15.270Z,20.55
2023-05-15T14:20:44.048Z,18.88
2023-05-15T14:23:12.141Z,19.92
2023-05-15T14:25:41.715Z,19.88
2023-05-15T14:28:09.483Z,19.42
2023-05-15T14:30:38.161Z,20.27
2023-05-15T14:33:06.024Z,18.30
2023-05-15T14:35:34.551Z,18.67
2023-05-15T14:38:03.320Z,17.85
2023-05-15T14:40:31.436Z,18.35
2023-05-15T14:42:58.962Z,19.30
2023-05-15T14:45:27.409Z,19.05
2023-05-15T14:47:56.253Z,18.05
2023-05-15T14:50:24.887Z,19.20
2023-05-15T14:52:53.219Z,18.83
2023-05-15T14:55:22.254Z,18.98
2023-05-15T14:57:50.207Z,17.63
2023-05-15T15:00:19.278Z,20.10
2023-05-15T15:02:47.328Z,18.70
2023-05-15T15:05:15.936Z,19.08
2023-05-15T15:08:09.108Z,18.98
2023-05-15T15:10:38.800Z,18.67
2023-05-15T15:13:08.273Z,19.52
2023-05-15T15:15:37.546Z,19.75
2023-05-15T15:18:05.690Z,20.55
2023-05-15T15:20:34.757Z,20.20
2023-05-15T15:23:04.095Z,18.25
2023-05-15T15:25:34.538Z,19.85
2023-05-15T15:28:03.195Z,17.98
2023-05-15T15:30:31.893Z,18.92
2023-05-15T15:33:01.661Z,18.20
2023-05-15T15:35:30.412Z,18.90
2023-05-15T15:37:58.991Z,18.83
2023-05-15T15:40:27.756Z,18.20
2023-05-15T15:42:56.065Z,16.45
2023-05-15T15:45:24.677Z,17.60
2023-05-15T15:47:52.326Z,19.40
2023-05-15T15:50:20.921Z,18.20
2023-05-15T15:52:49.129Z,18.42
2023-05-15T15:55:17.660Z,17.23
2023-05-15T15:57:46.208Z,18.00
2023-05-15T16:00:15.005Z,16.90
2023-05-15T16:02:43.487Z,16.27
2023-05-15T16:05:12.414Z,16.42
2023-05-15T16:07:40.353Z,16.30
2023-05-15T16:10:13.194Z,15.68
2023-05-15T16:12:42.808Z,16.00
2023-05-15T16:17:44.256Z,14.60
2023-05-15T16:20:12.472Z,13.27
2023-05-15T16:22:42.018Z,14.65
2023-05-15T16:25:10.682Z,13.13
2023-05-15T16:27:39.294Z,15.27
2023-05-15T16:30:09.690Z,16.77
2023-05-15T16:33:21.181Z,16.95
2023-05-15T16:35:49.095Z,15.75
2023-05-15T16:38:18.416Z,15.68
2023-05-15T16:40:47.327Z,16.60
2023-05-15T16:43:16.287Z,16.58
2023-05-15T16:45:47.593Z,15.65
2023-05-15T16:48:17.860Z,15.10
2023-05-15T16:50:46.925Z,16.23
2023-05-15T16:53:15.955Z,15.57
2023-05-15T16:55:45.242Z,15.40
2023-05-15T16:58:13.705Z,14.75
2023-05-15T17:00:42.265Z,14.35
2023-05-15T17:03:10.449Z,15.43
2023-05-15T17:05:40.485Z,14.43
2023-05-15T17:08:08.387Z,15.10
2023-05-15T17:10:36.923Z,15.50
2023-05-15T17:13:04.936Z,14.73
2023-05-15T17:15:33.443Z,14.63
2023-05-15T17:18:02.163Z,14.93
2023-05-15T17:20:31.893Z,15.35
2023-05-15T17:22:59.932Z,15.38
2023-05-15T17:25:28.434Z,14.82
2023-05-15T17:27:56.771Z,14.18
2023-05-15T17:30:25.340Z,14.40
2023-05-15T17:32:53.754Z,14.55
2023-05-15T17:35:23.017Z,14.68
2023-05-15T17:37:51.931Z,13.30
2023-05-15T17:40:20.109Z,12.75
2023-05-15T17:42:48.334Z,12.05
2023-05-15T17:45:16.708Z,14.05
2023-05-15T17:47:45.157Z,12.73
2023-05-15T17:50:13.805Z,12.57
2023-05-15T17:52:41.648Z,13.65
2023-05-15T17:55:10.346Z,13.27
2023-05-15T17:57:38.200Z,13.73
2023-05-15T18:00:08.043Z,15.13
2023-05-15T18:02:45.106Z,15.32
2023-05-15T18:05:13.772Z,14.70
2023-05-15T18:07:42.627Z,15.40
2023-05-15T18:10:11.936Z,14.95
2023-05-15T18:12:40.289Z,15.05
2023-05-15T18:15:09.585Z,16.38
2023-05-15T18:17:37.385Z,16.35
2023-05-15T18:20:06.734Z,15.52
2023-05-15T18:22:34.660Z,15.68
2023-05-15T18:25:03.123Z,16.17
2023-05-15T18:27:30.940Z,16.55
2023-05-15T18:29:59.504Z,16.48
2023-05-15T18:32:27.337Z,16.27
2023-05-15T18:34:55.800Z,18.58
2023-05-15T18:37:23.593Z,16.27
2023-05-15T18:39:52.298Z,17.60
2023-05-15T18:42:20.214Z,17.30
2023-05-15T18:44:48.763Z,17.75
2023-05-15T18:47:17.266Z,17.60
2023-05-15T18:49:45.318Z,18.40
2023-05-15T18:52:13.121Z,18.33
2023-05-15T18:54:46.092Z,14.77
2023-05-15T18:57:16.916Z,12.20
2023-05-15T18:59:45.846Z,11.70
2023-05-15T19:02:14.374Z,10.00
2023-05-15T19:04:43.095Z,9.65
2023-05-15T19:07:13.082Z,10.55
2023-05-15T19:09:43.279Z,9.82
2023-05-15T19:12:11.872Z,10.40
2023-05-15T19:14:41.449Z,11.07
2023-05-15T19:17:10.265Z,9.75
2023-05-15T19:19:38.938Z,9.50
2023-05-15T19:22:07.103Z,9.60
2023-05-15T19:24:36.028Z,8.52
2023-05-15T19:27:04.727Z,8.13
2023-05-15T19:29:34.381Z,5.45
2023-05-15T19:32:03.252Z,5.30
2023-05-15T19:34:31.744Z,4.75
2023-05-15T19:36:59.315Z,4.20
2023-05-15T19:39:27.620Z,4.00
2023-05-15T19:41:56.284Z,3.60
2023-05-15T19:44:24.487Z,4.47
2023-05-15T19:46:53.930Z,3.33
2023-05-15T19:49:22.858Z,3.28
2023-05-15T19:51:50.613Z,2.92
2023-05-15T19:54:19.587Z,4.35
2023-05-15T19:56:48.016Z,2.70
2023-05-15T19:59:16.632Z,3.35
2023-05-15T20:01:46.220Z,2.72
2023-05-15T20:04:16.001Z,2.97
2023-05-15T20:06:45.391Z,2.97
2023-05-15T20:09:14.239Z,3.30
2023-05-15T20:11:42.850Z,3.60
2023-05-15T20:14:11.548Z,3.58
2023-05-15T20:16:39.677Z,3.83
2023-05-15T20:19:08.455Z,4.60
2023-05-15T20:21:36.568Z,4.18
2023-05-15T20:24:05.356Z,4.65
2023-05-15T20:26:36.179Z,4.70
2023-05-15T20:29:04.594Z,5.47
2023-05-15T20:31:33.234Z,5.50
2023-05-15T20:34:02.982Z,5.50
2023-05-15T20:36:32.832Z,5.85
2023-05-15T20:39:07.530Z,5.78
2023-05-15T20:41:35.950Z,6.03
2023-05-15T20:44:04.605Z,5.95
2023-05-15T20:46:32.551Z,6.63
2023-05-15T20:49:01.299Z,6.00
2023-05-15T20:51:29.614Z,6.03
2023-05-15T20:53:58.071Z,7.15
2023-05-15T20:56:26.311Z,7.93
2023-05-15T20:58:54.885Z,8.95
2023-05-15T21:01:22.814Z,9.20
2023-05-15T21:03:51.182Z,9.32
2023-05-15T21:06:18.970Z,9.73
2023-05-15T21:08:47.568Z,9.73
2023-05-15T21:11:15.657Z,10.30
2023-05-15T21:13:43.874Z,10.35
2023-05-15T21:16:13.123Z,10.10
2023-05-15T21:18:42.777Z,9.80
2023-05-15T21:21:10.375Z,9.93
2023-05-15T21:23:38.767Z,10.27
2023-05-15T21:26:07.093Z,9.70
2023-05-15T21:28:35.521Z,8.90
2023-05-15T21:31:10.692Z,9.85
2023-05-15T21:33:39.490Z,9.63
2023-05-15T21:36:07.880Z,9.25
2023-05-15T21:38:36.120Z,9.13
2023-05-15T21:41:04.154Z,8.98
2023-05-15T21:43:32.902Z,9.32
2023-05-15T21:46:01.593Z,8.25
2023-05-15T21:48:30.285Z,8.25
2023-05-15T21:50:58.946Z,8.27
2023-05-15T21:53:27.152Z,8.20
2023-05-15T21:55:56.324Z,9.77
2023-05-15T21:58:25.031Z,7.22
2023-05-15T22:00:53.366Z,7.20
2023-05-15T22:03:22.285Z,7.43
2023-05-15T22:05:52.072Z,7.40
2023-05-15T22:08:22.326Z,6.15
2023-05-15T22:10:51.106Z,6.45
2023-05-15T22:13:20.177Z,5.38
2023-05-15T22:15:48.782Z,5.63
2023-05-15T22:18:19.499Z,5.43
2023-05-15T22:20:49.053Z,5.60
2023-05-15T22:23:17.637Z,5.10
2023-05-15T22:25:45.565Z,5.32
2023-05-15T22:28:13.961Z,5.38
2023-05-15T22:30:41.795Z,5.95
2023-05-15T22:33:10.047Z,5.05
2023-05-15T22:35:37.398Z,5.10
2023-05-15T22:38:07.739Z,5.22
2023-05-15T22:40:35.541Z,6.10
2023-05-15T22:43:04.166Z,6.32
2023-05-15T22:45:31.861Z,6.30
2023-05-15T22:47:59.930Z,6.32
2023-05-15T22:50:28.372Z,5.95
2023-05-15T22:52:57.114Z,6.40
2023-05-15T22:55:24.946Z,5.97
2023-05-15T22:57:53.308Z,6.43
2023-05-15T23:00:21.616Z,5.50
2023-05-15T23:02:49.787Z,6.43
2023-05-15T23:05:17.645Z,6.53
2023-05-15T23:07:45.653Z,6.30
2023-05-15T23:10:13.387Z,6.75
2023-05-15T23:12:41.706Z,6.30
2023-05-15T23:15:12.690Z,6.05
2023-05-15T23:17:41.247Z,6.85
2023-05-15T23:20:13.014Z,6.82
2023-05-15T23:22:41.760Z,6.65
2023-05-15T23:25:10.653Z,6.07
2023-05-15T23:27:38.659Z,6.90
2023-05-15T23:30:07.040Z,6.55
2023-05-15T23:32:35.095Z,6.63
2023-05-15T23:35:03.027Z,6.55
2023-05-15T23:37:31.355Z,7.28
2023-05-15T23:39:59.004Z,7.20
2023-05-15T23:42:27.121Z,6.50
2023-05-15T23:44:54.818Z,6.97
2023-05-15T23:47:22.684Z,7.53
2023-05-15T23:49:50.428Z,7.22
2023-05-15T23:52:18.578Z,8.13
2023-05-15T23:54:46.521Z,7.55
2023-05-15T23:57:16.331Z,7.20
2023-05-15T23:59:44.926Z,8.13
